Stith, Texas
Current Conditions -  °F | °C
As of 10:58 AM on Sunday 23 Nov 2014 (Local Time) from KDYS Reporting Station
Clear Clear  
Wind Chill: 67°   Ceiling: Unl
Heat Index: 67°   Visibility: 10mi
Dew Point: 35°   Wind: 18mph
Humidity: 30%   Direction: 250°WSW
Pressure: 29.53"   Gusts: 29mph
Location:  32.3913°N, 100.009°W
Report Text: KDYS 231658Z AUTO 25016G25KT 10SM CLR 20/01 A2953 RMK AO2 PK WND 27028/41 SLP976 T01960014 $
Loading
Personal Weather Stations






























Interactive Weather Map New forecast layout! Learn more

10-Day Weather Forecast

Advertisements
Track Severe Weather on mobile